Main page
METAR-TAF:

METAR-TAF

Airports :

Corfu International Airport

Corfu, Greece

latitude: 39-37N, longitude: 019-55E, elevation: 2 m

Current weather observation

The report was made 12 minutes ago, at 09:20 UTC
Temperature 30°C
Humidity 55%
Pressure 1013 hPa
Visibility 10 km or more
Few clouds at a height of 2500 ft

METAR: LGKR 110920Z /////KT 9999 FEW025 30/20 Q1013 NOSIG

Time: 12:32 (09:32 UTC)

Forecast

The report was made 4 hours and 32 minutes ago, at 05:00 UTC
Forecast valid from 11 at 06 UTC to 12 at 06 UTC
Wind 5 kt from variable directions
Visibility 10 km or more
Few clouds at a height of 2500 ft
Becoming
from 11 at 12 UTC to 11 at 14 UTC
Wind 10 kt from the Northwest
Becoming
from 12 at 00 UTC to 12 at 02 UTC
Wind 5 kt from variable directions

TAF: LGKR 110500Z 1106/1206 VRB05KT 9999 FEW025 BECMG 1112/1114 31010KT BECMG 1200/1202 VRB05KT

Weather observations and forecasts of more than 4000 airports (METAR and TAF reports).

The available stations are represented by yellow and red dots on the map.

Hover mouse over dot to see the name of the station.

Then click to see weather observations and forecasts.

To change the map : click on the green buttons with a black cross to zoom in, on the green button with a dash to zoom out, or on the green arrows for adjacent maps.


METAR-TAF: